Stations météo

réclame
Mon MeteoGroup
Dunstaffnage, Grande-Bretagne (99006): Température de l'air & dewpoint: 11.12.2017 02:00:00 - 17.12.2017 02:00:00 (GMT)Dunstaffnage, Grande-Bretagne (99006): Température de l'air -20cm: 11.12.2017 02:00:00 - 17.12.2017 02:00:00 (GMT)Dunstaffnage, Grande-Bretagne (99006): Vitesse du vent & gusts: 11.12.2017 02:00:00 - 17.12.2017 02:00:00 (GMT)Dunstaffnage, Grande-Bretagne (99006): Direction du vent: 11.12.2017 02:00:00 - 17.12.2017 02:00:00 (GMT)Dunstaffnage, Grande-Bretagne (99006): Quantités de précipitations: 11.12.2017 02:00:00 - 17.12.2017 02:00:00 (GMT)
Date & Time tt [°C] td [°C] tt -20cm [°C] ff [km/h] ff [knt] fx [km/h] fx [knt] dd rr [mm]
17.12.2017 02:00:00 6,0 5,1 - 18 10 - - SSE 0,0
17.12.2017 01:00:00 4,1 3,7 - 18 10 - - ESE 0,2
17.12.2017 00:00:00 3,6 2,9 - 18 10 - - ESE -
16.12.2017 23:00:00 2,6 1,7 - 13 7 - - ENE 0,0
16.12.2017 22:00:00 2,4 1,7 - 11 6 - - ESE 0,0
16.12.2017 21:00:00 2,2 1,4 - 11 6 - - E 0,0
16.12.2017 20:00:00 2,0 1,4 - 13 7 - - E 0,0
16.12.2017 19:00:00 1,5 1,1 - 9 5 - - E 0,0
16.12.2017 18:00:00 1,8 1,2 - 8 4 - - ENE 0,0
16.12.2017 17:00:00 2,4 1,4 - 9 5 - - E 0,0
16.12.2017 16:00:00 3,1 2,2 - 8 4 - - E 0,0
16.12.2017 15:00:00 3,5 2,2 - 5 3 - - SE 0,0
16.12.2017 14:00:00 3,9 2,6 - 2 1 - - NE 0,0
16.12.2017 13:00:00 3,8 2,7 - 4 2 - - ESE 0,0
16.12.2017 12:00:00 4,0 3,0 - 4 2 - - NE 0,0
16.12.2017 11:00:00 3,1 2,4 - 8 4 - - E 0,0
16.12.2017 10:00:00 2,9 2,4 - 5 3 - - E 0,0
16.12.2017 09:00:00 2,5 2,2 3,7 2 1 - - WNW 0,0
16.12.2017 08:00:00 2,4 1,9 - 5 3 - - S 0,0
16.12.2017 07:00:00 2,4 1,7 - 4 2 - - SSW 0,2
16.12.2017 06:00:00 3,0 2,2 - 2 1 - - NW 0,0
16.12.2017 05:00:00 3,0 1,9 - 5 3 - - ENE 0,0
16.12.2017 04:00:00 2,8 1,2 - 8 4 - - ENE 0,0
16.12.2017 03:00:00 3,9 1,8 - 5 3 - - SE 0,0
16.12.2017 02:00:00 2,7 1,0 - 5 3 - - WSW 0,0
16.12.2017 01:00:00 3,1 -0,3 - 4 2 - - S 0,0
16.12.2017 00:00:00 4,5 -0,1 - 13 7 - - NW 0,0
15.12.2017 23:00:00 4,6 0,0 - 21 11 - - NW 0,0
15.12.2017 22:00:00 3,6 0,8 - 8 4 - - W 0,0
15.12.2017 21:00:00 3,5 0,8 - 8 4 - - S 0,0
15.12.2017 20:00:00 4,5 0,3 - 11 6 - - NE 0,0
15.12.2017 19:00:00 4,9 0,3 - 11 6 - - N 0,0
15.12.2017 18:00:00 - - - - - - - - 0,0
15.12.2017 17:00:00 5,3 0,5 - 9 5 - - NNW 0,0
15.12.2017 16:00:00 5,8 0,3 - 22 12 - - NW 0,0
15.12.2017 15:00:00 5,9 1,2 - 21 11 - - NW 0,0
15.12.2017 14:00:00 6,2 1,0 - 8 4 - - N 0,0
15.12.2017 13:00:00 5,7 0,9 - 8 4 - - NNW 0,0
15.12.2017 12:00:00 5,8 1,9 - 21 11 - - NW 0,0
15.12.2017 11:00:00 5,7 2,1 - 13 7 - - NNW 0,0
15.12.2017 10:00:00 5,1 1,7 - 11 6 - - NNW 0,0
15.12.2017 09:00:00 3,3 0,4 3,7 4 2 - - WNW 0,0
15.12.2017 08:00:00 5,4 1,0 - 13 7 - - NE 0,0
15.12.2017 07:00:00 5,1 2,0 - 8 4 - - N 0,0
15.12.2017 06:00:00 5,0 1,9 - 8 4 - - N 0,0
15.12.2017 05:00:00 5,3 2,4 - 16 9 - - NNE 0,0
15.12.2017 04:00:00 4,2 1,8 - 13 7 - - NNE 0,0
15.12.2017 03:00:00 3,8 2,8 - 8 4 - - NE 0,0
15.12.2017 02:00:00 4,1 1,2 - 2 1 - - N 0,0
15.12.2017 01:00:00 4,3 1,3 - 11 6 - - N 0,0
15.12.2017 00:00:00 4,0 1,1 - 13 7 - - N 0,0
14.12.2017 23:00:00 4,0 1,4 - 29 16 52 28 NE 0,0
14.12.2017 22:00:00 4,2 2,2 - 26 14 52 28 NE 0,0
14.12.2017 21:00:00 4,9 2,8 - 13 7 - - NNE 0,0
14.12.2017 20:00:00 5,7 4,0 - 16 9 - - NNE 0,6
14.12.2017 19:00:00 5,3 3,5 - 13 7 - - WNW 0,4
14.12.2017 18:00:00 5,2 3,3 - 22 12 - - NW 1,0
14.12.2017 17:00:00 4,3 2,6 - 8 4 - - ENE 0,0
14.12.2017 16:00:00 5,0 3,2 - 11 6 - - NW 1,0
14.12.2017 15:00:00 3,9 2,6 - 15 8 - - W 1,4
14.12.2017 14:00:00 4,9 2,1 - 4 2 - - SSW 0,0
14.12.2017 13:00:00 4,0 1,3 - 11 6 - - NW 0,0
14.12.2017 12:00:00 4,1 2,9 - 9 5 - - NW 0,2
14.12.2017 11:00:00 2,8 2,0 - 5 3 - - N 0,0
14.12.2017 10:00:00 2,6 2,1 - 8 4 - - NE 0,0
14.12.2017 09:00:00 2,3 1,8 3,2 4 2 - - ESE 0,0
14.12.2017 08:00:00 2,4 1,7 - 15 8 - - ESE 0,4
14.12.2017 07:00:00 2,5 1,6 - 9 5 - - SSE 0,4
14.12.2017 06:00:00 2,8 2,1 - 4 2 - - SSE 0,2
14.12.2017 05:00:00 2,2 1,4 - 5 3 - - S 1,4
14.12.2017 04:00:00 2,5 1,2 - 8 4 - - SSW 0,2
14.12.2017 03:00:00 4,5 1,2 - 26 14 - - WSW 0,0
14.12.2017 02:00:00 4,1 1,6 - 5 3 - - SSW 0,0
14.12.2017 01:00:00 3,9 1,0 - 11 6 - - SW 0,0
14.12.2017 00:00:00 3,2 1,3 - 11 6 - - SSW 0,0
13.12.2017 23:00:00 3,2 1,0 - 16 9 - - WSW 0,0
13.12.2017 22:00:00 2,6 0,6 - 15 8 - - W 0,0
13.12.2017 21:00:00 2,2 1,1 - 11 6 59 32 WSW 0,4
13.12.2017 20:00:00 1,3 0,3 - 8 4 - - SW 0,0
13.12.2017 19:00:00 2,4 1,4 - 8 4 - - SSW 0,8
13.12.2017 18:00:00 3,5 1,7 - 13 7 - - W 0,6
13.12.2017 17:00:00 2,5 1,1 - 8 4 - - SW 0,2
13.12.2017 16:00:00 3,1 1,2 - 8 4 - - SW 0,0
13.12.2017 15:00:00 4,0 1,9 - 22 12 - - WSW 0,0
13.12.2017 14:00:00 3,6 0,4 - 11 6 - - SW 0,0
13.12.2017 13:00:00 5,5 1,1 - 16 9 - - W 0,0
13.12.2017 12:00:00 5,6 0,9 - 26 14 - - W 0,0
13.12.2017 11:00:00 4,9 1,4 - 21 11 - - WSW 0,0
13.12.2017 10:00:00 4,6 2,4 - 34 18 52 28 W 0,2
13.12.2017 09:00:00 4,9 3,2 2,9 15 8 - - SW 0,4
13.12.2017 08:00:00 4,3 3,0 - 11 6 46 25 SW 1,8
13.12.2017 07:00:00 5,2 4,3 - 15 8 50 27 SW 2,4
13.12.2017 06:00:00 5,2 4,0 - 15 8 52 28 SSW 2,0
13.12.2017 05:00:00 5,9 4,6 - 18 10 - - S 0,8
13.12.2017 04:00:00 6,5 4,5 - 16 9 - - SW 0,2
13.12.2017 03:00:00 6,8 3,9 - 18 10 - - WSW 0,0
13.12.2017 02:00:00 5,3 3,6 - 11 6 - - SW 0,0
13.12.2017 01:00:00 3,4 2,1 - 4 2 - - SSE 0,0
13.12.2017 00:00:00 5,8 3,0 - 11 6 - - NNW 0,0
12.12.2017 23:00:00 6,3 3,0 - 28 15 46 25 W 0,0
12.12.2017 22:00:00 3,0 2,3 - 4 2 - - SSW 0,0
12.12.2017 21:00:00 2,9 2,5 - 11 6 - - E 0,0
12.12.2017 20:00:00 2,9 2,3 - 15 8 - - E 0,2
12.12.2017 19:00:00 3,5 2,3 - 13 7 - - SSE 0,8
12.12.2017 18:00:00 3,1 1,9 - 16 9 - - S 2,2
12.12.2017 17:00:00 3,5 2,3 - 11 6 - - S 1,8
12.12.2017 16:00:00 4,1 2,6 - 9 5 - - SSE 0,8
12.12.2017 15:00:00 4,1 2,5 - 15 8 - - SE 0,0
12.12.2017 14:00:00 4,8 2,9 - 16 9 - - SE 0,4
12.12.2017 13:00:00 3,9 2,8 - 16 9 - - SE 0,0
12.12.2017 12:00:00 1,6 0,9 - 9 5 - - E 0,0
12.12.2017 11:00:00 0,6 -0,2 - 11 6 - - E 0,0
12.12.2017 10:00:00 0,1 -0,7 - 8 4 - - ESE 0,0
12.12.2017 09:00:00 -1,2 -2,1 3,2 13 7 - - ENE 0,0
12.12.2017 08:00:00 -1,1 -1,9 - 15 8 - - E 0,0
12.12.2017 07:00:00 -1,6 -2,4 - 13 7 - - E 0,0
12.12.2017 06:00:00 -1,2 -1,6 - 13 7 - - E 0,0
12.12.2017 05:00:00 -1,7 -2,4 - 15 8 - - E 0,0
12.12.2017 04:00:00 -1,2 -1,9 - 15 8 - - E 0,0
12.12.2017 03:00:00 -1,8 -2,3 - 13 7 - - E 0,0
12.12.2017 02:00:00 -2,1 -2,5 - 4 2 - - E 0,0
12.12.2017 01:00:00 -2,5 -2,8 - 4 2 - - ENE 0,0
12.12.2017 00:00:00 -2,8 -3,3 - 2 1 - - SE 0,0
11.12.2017 23:00:00 -2,4 -2,7 - 2 1 - - ESE 0,0
11.12.2017 22:00:00 -1,7 -1,8 - 4 2 - - E 0,0
11.12.2017 21:00:00 -1,8 -2,1 - 2 1 - - SSW 0,0
11.12.2017 20:00:00 -1,2 -1,5 - 2 1 - - E 0,0
11.12.2017 19:00:00 -0,8 -1,5 - 4 2 - - SW 0,0
11.12.2017 18:00:00 -0,5 -1,5 - 4 2 - - SSW 0,0
11.12.2017 17:00:00 1,7 0,0 - 2 1 - - E 0,0
11.12.2017 16:00:00 4,4 0,9 - 8 4 - - N 0,0
11.12.2017 15:00:00 3,6 1,7 - 8 4 - - N 0,0
11.12.2017 14:00:00 3,4 1,0 - 2 1 - - SSW 0,0
11.12.2017 13:00:00 2,7 1,8 - 5 3 - - E 0,0
11.12.2017 12:00:00 1,6 1,4 - 8 4 - - ENE 0,0
11.12.2017 11:00:00 1,4 1,2 - 5 3 - - E 0,0
11.12.2017 10:00:00 -1,0 -1,3 - 2 1 - - SW 0,0
11.12.2017 09:00:00 -0,2 -0,4 3,7 9 5 - - E 0,0
11.12.2017 08:00:00 -0,3 -0,5 - 8 4 - - ENE 0,0
11.12.2017 07:00:00 0,0 -0,2 - 9 5 - - E 0,0
11.12.2017 06:00:00 -1,6 -2,1 - 2 1 - - SE 0,0
11.12.2017 05:00:00 -0,6 -0,9 - 4 2 - - ESE 0,0
11.12.2017 04:00:00 -1,3 -1,8 - 9 5 - - E 0,0
11.12.2017 03:00:00 -0,7 -1,4 - 13 7 - - ESE 0,0
11.12.2017 02:00:00 -1,2 -2,3 - 13 7 - - ENE 0,0

tt = Température de l'air
td = dewpoint
tt -20cm = Température de l'air -20cm
ff = Vitesse du vent
fx = gusts
dd = Direction du vent
rr = Quantités de précipitations

stations d'obs. à proximité